createdAt,value
2019-02-14T00:01:50.513Z,-0.40
2019-02-14T00:04:17.090Z,-0.50
2019-02-14T00:06:43.751Z,-0.50
2019-02-14T00:09:10.313Z,-0.50
2019-02-14T00:11:37.197Z,-0.40
2019-02-14T00:14:03.781Z,-0.40
2019-02-14T00:16:30.320Z,-0.30
2019-02-14T00:18:56.884Z,-0.30
2019-02-14T00:21:23.401Z,-0.20
2019-02-14T00:23:49.996Z,-0.20
2019-02-14T00:26:16.584Z,-0.20
2019-02-14T00:28:43.115Z,-0.10
2019-02-14T00:31:09.653Z,-0.10
2019-02-14T00:33:36.205Z,-0.10
2019-02-14T00:36:02.733Z,-0.10
2019-02-14T00:38:29.281Z,-0.20
2019-02-14T00:40:55.867Z,-0.40
2019-02-14T00:43:22.397Z,-0.50
2019-02-14T00:45:48.986Z,-0.50
2019-02-14T00:48:15.546Z,-0.50
2019-02-14T00:50:42.111Z,-0.40
2019-02-14T00:53:08.675Z,-0.40
2019-02-14T00:55:35.264Z,-0.40
2019-02-14T00:58:01.794Z,-0.40
2019-02-14T01:00:28.346Z,-0.50
2019-02-14T01:02:55.005Z,-0.50
2019-02-14T01:05:21.662Z,-0.50
2019-02-14T01:07:48.220Z,-0.50
2019-02-14T01:10:14.781Z,-0.50
2019-02-14T01:12:41.297Z,-0.50
2019-02-14T01:15:09.042Z,-0.50
2019-02-14T01:17:35.756Z,-0.40
2019-02-14T01:20:03.301Z,-0.50
2019-02-14T01:22:29.942Z,-0.50
2019-02-14T01:24:56.497Z,-0.50
2019-02-14T01:27:23.029Z,-0.50
2019-02-14T01:29:49.650Z,-0.50
2019-02-14T01:32:16.211Z,-0.60
2019-02-14T01:34:42.749Z,-0.70
2019-02-14T01:37:09.267Z,-0.70
2019-02-14T01:39:35.824Z,-0.70
2019-02-14T01:42:02.623Z,-0.60
2019-02-14T01:44:29.170Z,-0.90
2019-02-14T01:46:55.743Z,-1.00
2019-02-14T01:49:22.306Z,-0.80
2019-02-14T01:51:48.945Z,-0.80
2019-02-14T01:54:15.517Z,-0.80
2019-02-14T01:56:42.044Z,-0.70
2019-02-14T01:59:08.602Z,-0.60
2019-02-14T02:01:35.165Z,-0.60
2019-02-14T02:04:01.706Z,-0.60
2019-02-14T02:06:28.241Z,-0.60
2019-02-14T02:08:54.808Z,-0.50
2019-02-14T02:11:21.329Z,-0.70
2019-02-14T02:13:47.882Z,-0.80
2019-02-14T02:16:14.524Z,-0.80
2019-02-14T02:18:41.066Z,-0.80
2019-02-14T02:21:07.638Z,-0.80
2019-02-14T02:23:34.202Z,-0.90
2019-02-14T02:26:00.885Z,-0.80
2019-02-14T02:28:27.450Z,-0.90
2019-02-14T02:30:54.012Z,-0.90
2019-02-14T02:33:20.545Z,-1.10
2019-02-14T02:35:47.095Z,-1.20
2019-02-14T02:38:13.644Z,-1.20
2019-02-14T02:40:40.210Z,-1.20
2019-02-14T02:43:06.859Z,-1.40
2019-02-14T02:45:33.440Z,-1.60
2019-02-14T02:47:59.969Z,-1.50
2019-02-14T02:50:26.503Z,-1.40
2019-02-14T02:52:53.083Z,-1.50
2019-02-14T02:55:19.601Z,-1.20
2019-02-14T02:57:46.740Z,-1.20
2019-02-14T03:00:15.505Z,-1.30
2019-02-14T03:02:42.043Z,-1.30
2019-02-14T03:05:10.398Z,-1.10
2019-02-14T03:07:37.073Z,-1.00
2019-02-14T03:10:07.301Z,-1.00
2019-02-14T03:12:35.048Z,-1.00
2019-02-14T03:15:01.584Z,-1.00
2019-02-14T03:17:28.234Z,-1.10
2019-02-14T03:19:54.762Z,-1.10
2019-02-14T03:22:21.316Z,-1.10
2019-02-14T03:24:47.911Z,-1.10
2019-02-14T03:27:14.473Z,-1.20
2019-02-14T03:29:41.050Z,-1.30
2019-02-14T03:32:07.583Z,-1.40
2019-02-14T03:34:34.189Z,-1.40
2019-02-14T03:37:00.743Z,-1.20
2019-02-14T03:39:27.267Z,-1.20
2019-02-14T03:41:53.834Z,-1.20
2019-02-14T03:44:20.427Z,-1.20
2019-02-14T03:46:48.162Z,-1.20
2019-02-14T03:49:14.691Z,-1.10
2019-02-14T03:51:41.251Z,-1.10
2019-02-14T03:54:07.799Z,-1.10
2019-02-14T03:56:34.401Z,-1.10
2019-02-14T03:59:00.936Z,-1.10
2019-02-14T04:01:27.482Z,-1.10
2019-02-14T04:03:54.023Z,-1.20
2019-02-14T04:06:27.303Z,-1.20
2019-02-14T04:08:48.950Z,-1.10
2019-02-14T04:11:15.526Z,-1.10
2019-02-14T04:13:42.106Z,-1.00
2019-02-14T04:16:08.635Z,-1.00
2019-02-14T04:18:35.195Z,-1.00
2019-02-14T04:21:01.731Z,-1.10
2019-02-14T04:23:28.383Z,-1.10
2019-02-14T04:25:54.921Z,-1.20
2019-02-14T04:28:21.504Z,-1.20
2019-02-14T04:30:48.111Z,-1.10
2019-02-14T04:33:14.871Z,-1.10
2019-02-14T04:35:41.409Z,-1.20
2019-02-14T04:38:07.991Z,-1.10
2019-02-14T04:40:34.546Z,-1.10
2019-02-14T04:43:01.094Z,-1.10
2019-02-14T04:45:27.627Z,-1.10
2019-02-14T04:47:54.186Z,-1.10
2019-02-14T04:50:20.736Z,-1.00
2019-02-14T04:52:47.270Z,-1.00
2019-02-14T04:55:13.806Z,-1.00
2019-02-14T04:57:40.366Z,-1.00
2019-02-14T05:00:09.972Z,-1.00
2019-02-14T05:02:36.523Z,-1.10
2019-02-14T05:05:04.785Z,-1.00
2019-02-14T05:07:31.323Z,-0.90
2019-02-14T05:09:57.863Z,-0.90
2019-02-14T05:12:26.164Z,-0.80
2019-02-14T05:14:52.797Z,-0.80
2019-02-14T05:17:19.362Z,-0.80
2019-02-14T05:19:45.927Z,-0.70
2019-02-14T05:22:12.451Z,-0.80
2019-02-14T05:24:39.009Z,-0.90
2019-02-14T05:27:05.543Z,-0.90
2019-02-14T05:29:32.072Z,-0.90
2019-02-14T05:31:58.646Z,-0.90
2019-02-14T05:34:25.187Z,-1.10
2019-02-14T05:36:54.677Z,-1.00
2019-02-14T05:39:20.077Z,-1.00
2019-02-14T05:41:46.633Z,-1.00
2019-02-14T05:44:13.179Z,-1.10
2019-02-14T05:46:39.772Z,-1.10
2019-02-14T05:49:06.335Z,-1.10
2019-02-14T05:51:32.871Z,-1.10
2019-02-14T05:53:59.426Z,-1.10
2019-02-14T05:56:25.970Z,-1.10
2019-02-14T05:58:52.530Z,-1.20
2019-02-14T06:01:19.770Z,-1.20
2019-02-14T06:03:47.449Z,-1.10
2019-02-14T06:06:13.992Z,-1.10
2019-02-14T06:08:40.544Z,-1.30
2019-02-14T06:11:07.110Z,-1.30
2019-02-14T06:13:33.643Z,-1.20
2019-02-14T06:16:00.195Z,-1.10
2019-02-14T06:18:26.740Z,-1.10
2019-02-14T06:20:53.309Z,-1.20
2019-02-14T06:23:19.974Z,-1.20
2019-02-14T06:25:46.539Z,-1.20
2019-02-14T06:28:13.077Z,-1.10
2019-02-14T06:30:39.648Z,-1.10
2019-02-14T06:33:06.195Z,-1.00
2019-02-14T06:35:32.807Z,-0.80
2019-02-14T06:37:59.385Z,-0.80
2019-02-14T06:40:25.940Z,-0.90
2019-02-14T06:42:52.520Z,-0.80
2019-02-14T06:45:19.095Z,-0.70
2019-02-14T06:47:45.704Z,-0.60
2019-02-14T06:50:12.275Z,-0.70
2019-02-14T06:52:40.399Z,-0.60
2019-02-14T06:55:07.197Z,-0.50
2019-02-14T06:57:33.721Z,-0.40
2019-02-14T07:00:00.294Z,-0.30
2019-02-14T07:02:26.819Z,-0.30
2019-02-14T07:04:53.354Z,-0.20
2019-02-14T07:07:19.954Z,0.00
2019-02-14T07:09:46.506Z,0.20
2019-02-14T07:12:13.029Z,0.20
2019-02-14T07:14:39.581Z,0.20
2019-02-14T07:17:06.136Z,0.20
2019-02-14T07:19:32.712Z,0.20
2019-02-14T07:22:00.373Z,0.30
2019-02-14T07:24:26.931Z,0.30
2019-02-14T07:26:53.474Z,0.40
2019-02-14T07:29:20.028Z,0.60
2019-02-14T07:31:46.569Z,0.70
2019-02-14T07:34:13.146Z,0.70
2019-02-14T07:36:39.684Z,0.80
2019-02-14T07:39:06.270Z,0.80
2019-02-14T07:41:32.789Z,1.00
2019-02-14T07:43:59.333Z,1.10
2019-02-14T07:46:25.870Z,1.30
2019-02-14T07:48:52.465Z,1.40
2019-02-14T07:51:19.032Z,1.30
2019-02-14T07:53:45.585Z,1.30
2019-02-14T07:56:12.116Z,1.50
2019-02-14T07:58:38.670Z,1.60
2019-02-14T08:01:05.227Z,1.70
2019-02-14T08:03:31.794Z,1.80
2019-02-14T08:05:58.366Z,2.20
2019-02-14T08:08:24.922Z,2.40
2019-02-14T08:10:51.582Z,2.50
2019-02-14T08:13:18.114Z,2.70
2019-02-14T08:15:44.773Z,2.80
2019-02-14T08:18:11.389Z,3.40
2019-02-14T08:20:37.937Z,3.90
2019-02-14T08:23:04.517Z,4.00
2019-02-14T08:25:31.076Z,3.90
2019-02-14T08:27:57.618Z,3.70
2019-02-14T08:30:24.171Z,3.80
2019-02-14T08:32:50.708Z,4.00
2019-02-14T08:35:17.277Z,3.90
2019-02-14T08:37:45.871Z,4.00
2019-02-14T08:40:16.277Z,4.00
2019-02-14T08:42:42.872Z,4.10
2019-02-14T08:45:10.824Z,4.30
2019-02-14T08:47:37.584Z,4.60
2019-02-14T08:50:06.494Z,4.60
2019-02-14T08:52:33.154Z,4.60
2019-02-14T08:54:59.680Z,4.30
2019-02-14T08:57:26.229Z,4.50
2019-02-14T08:59:52.789Z,4.80
2019-02-14T09:02:19.361Z,4.90
2019-02-14T09:04:45.931Z,4.80
2019-02-14T09:07:12.496Z,4.70
2019-02-14T09:09:39.020Z,4.80
2019-02-14T09:12:05.582Z,5.10
2019-02-14T09:14:32.152Z,5.40
2019-02-14T09:16:58.686Z,5.50
2019-02-14T09:19:25.229Z,5.70
2019-02-14T09:21:51.781Z,6.00
2019-02-14T09:24:18.296Z,6.00
2019-02-14T09:26:44.840Z,6.30
2019-02-14T09:29:13.743Z,6.40
2019-02-14T09:31:39.695Z,6.60
2019-02-14T09:34:06.239Z,6.60
2019-02-14T09:36:34.389Z,6.70
2019-02-14T09:39:01.140Z,6.70
2019-02-14T09:41:29.283Z,6.50
2019-02-14T09:43:55.845Z,6.60
2019-02-14T09:46:22.509Z,6.50
2019-02-14T09:48:49.052Z,6.60
2019-02-14T09:51:15.671Z,6.80
2019-02-14T09:53:42.247Z,7.20
2019-02-14T09:56:08.852Z,7.90
2019-02-14T09:58:35.414Z,7.80
2019-02-14T10:01:03.165Z,7.40
2019-02-14T10:03:29.712Z,7.40
2019-02-14T10:05:56.268Z,7.40
2019-02-14T10:08:22.828Z,7.40
2019-02-14T10:10:49.409Z,7.40
2019-02-14T10:13:15.972Z,7.20
2019-02-14T10:15:42.604Z,7.30
2019-02-14T10:18:09.221Z,7.60
2019-02-14T10:20:35.767Z,7.60
2019-02-14T10:23:02.335Z,8.10
2019-02-14T10:25:28.891Z,8.30
2019-02-14T10:27:55.469Z,8.50
2019-02-14T10:30:22.792Z,9.20
2019-02-14T10:32:49.363Z,9.20
2019-02-14T10:35:17.107Z,9.00
2019-02-14T10:37:43.681Z,9.20
2019-02-14T10:40:12.351Z,9.40
2019-02-14T10:42:40.622Z,10.20
2019-02-14T10:45:21.549Z,10.20
2019-02-14T10:47:48.114Z,10.10
2019-02-14T10:50:14.702Z,10.30
2019-02-14T10:52:42.235Z,11.00
2019-02-14T10:55:10.287Z,11.40
2019-02-14T10:57:36.818Z,11.70
2019-02-14T11:00:22.230Z,11.70
2019-02-14T11:02:48.858Z,12.40
2019-02-14T11:05:16.434Z,11.80
2019-02-14T11:07:42.969Z,10.50
2019-02-14T11:10:12.306Z,10.80
2019-02-14T11:12:38.956Z,12.60
2019-02-14T11:15:09.202Z,15.80
2019-02-14T11:17:35.864Z,17.90
2019-02-14T11:20:04.214Z,19.10
2019-02-14T11:22:30.806Z,18.90
2019-02-14T11:24:59.212Z,19.20
2019-02-14T11:27:25.697Z,19.50
2019-02-14T11:29:52.237Z,21.40
2019-02-14T11:32:18.773Z,22.10
2019-02-14T11:34:45.329Z,22.40
2019-02-14T11:37:11.862Z,23.00
2019-02-14T11:39:38.426Z,23.40
2019-02-14T11:42:04.981Z,24.50
2019-02-14T11:44:39.594Z,24.40
2019-02-14T11:46:59.868Z,24.20
2019-02-14T11:49:26.408Z,25.20
2019-02-14T11:51:52.961Z,26.50
2019-02-14T11:54:19.585Z,26.90
2019-02-14T11:56:46.146Z,26.30
2019-02-14T11:59:13.799Z,27.40
2019-02-14T12:01:40.316Z,28.10
2019-02-14T12:04:06.875Z,27.50
2019-02-14T12:06:33.447Z,25.10
2019-02-14T12:09:00.652Z,26.50
2019-02-14T12:11:27.664Z,27.90
2019-02-14T12:13:54.219Z,26.60
2019-02-14T12:16:20.765Z,27.00
2019-02-14T12:18:47.318Z,27.50
2019-02-14T12:21:13.864Z,28.20
2019-02-14T12:23:40.402Z,28.30
2019-02-14T12:26:06.976Z,26.60
2019-02-14T12:28:33.532Z,26.60
2019-02-14T12:31:00.064Z,26.80
2019-02-14T12:33:26.608Z,25.90
2019-02-14T12:35:53.169Z,26.70
2019-02-14T12:38:19.764Z,26.60
2019-02-14T12:40:46.351Z,27.10
2019-02-14T12:43:12.993Z,27.60
2019-02-14T12:45:39.541Z,27.40
2019-02-14T12:48:06.077Z,28.50
2019-02-14T12:50:32.658Z,29.10
2019-02-14T12:52:59.186Z,27.30
2019-02-14T12:55:25.863Z,29.10
2019-02-14T12:57:52.438Z,29.60
2019-02-14T13:00:21.915Z,28.70
2019-02-14T13:02:48.428Z,26.70
2019-02-14T13:05:14.972Z,28.90
2019-02-14T13:07:41.522Z,29.20
2019-02-14T13:10:10.456Z,28.70
2019-02-14T13:12:37.111Z,27.00
2019-02-14T13:15:07.480Z,26.80
2019-02-14T13:17:34.047Z,26.60
2019-02-14T13:20:00.614Z,27.60
2019-02-14T13:22:27.140Z,25.80
2019-02-14T13:24:53.709Z,26.20
2019-02-14T13:27:20.255Z,24.40
2019-02-14T13:29:46.861Z,24.50
2019-02-14T13:32:13.756Z,24.10
2019-02-14T13:34:40.511Z,23.60
2019-02-14T13:37:07.056Z,24.20
2019-02-14T13:39:33.633Z,25.30
2019-02-14T13:42:00.162Z,25.30
2019-02-14T13:44:26.742Z,26.50
2019-02-14T13:46:53.292Z,25.80
2019-02-14T13:49:19.868Z,24.70
2019-02-14T13:51:46.397Z,24.70
2019-02-14T13:54:12.943Z,25.30
2019-02-14T13:56:39.526Z,25.30
2019-02-14T13:59:07.087Z,25.00
2019-02-14T14:01:33.669Z,25.60
2019-02-14T14:04:00.234Z,25.10
2019-02-14T14:06:26.802Z,25.20
2019-02-14T14:08:53.320Z,23.70
2019-02-14T14:11:19.886Z,25.30
2019-02-14T14:13:46.398Z,24.60
2019-02-14T14:16:12.947Z,24.00
2019-02-14T14:18:39.505Z,22.20
2019-02-14T14:21:06.036Z,21.30
2019-02-14T14:23:32.592Z,21.80
2019-02-14T14:25:59.151Z,21.80
2019-02-14T14:28:25.699Z,21.80
2019-02-14T14:30:52.559Z,21.70
2019-02-14T14:33:19.364Z,21.70
2019-02-14T14:35:45.914Z,21.00
2019-02-14T14:38:13.686Z,19.80
2019-02-14T14:40:40.245Z,18.70
2019-02-14T14:43:15.617Z,18.00
2019-02-14T14:45:44.071Z,17.30
2019-02-14T14:48:19.271Z,16.30
2019-02-14T14:50:41.965Z,15.70
2019-02-14T14:53:08.519Z,15.30
2019-02-14T14:55:35.091Z,14.50
2019-02-14T14:58:02.319Z,14.00
2019-02-14T15:00:28.910Z,13.70
2019-02-14T15:02:55.442Z,13.40
2019-02-14T15:05:22.036Z,13.00
2019-02-14T15:07:48.630Z,12.60
2019-02-14T15:10:15.183Z,12.40
2019-02-14T15:12:41.755Z,12.30
2019-02-14T15:15:08.317Z,12.20
2019-02-14T15:17:34.956Z,12.10
2019-02-14T15:20:01.625Z,11.90
2019-02-14T15:22:28.263Z,11.70
2019-02-14T15:24:54.843Z,11.50
2019-02-14T15:27:21.418Z,11.40
2019-02-14T15:29:47.978Z,11.30
2019-02-14T15:34:44.110Z,11.00
2019-02-14T15:37:12.629Z,11.00
2019-02-14T15:39:47.204Z,10.90
2019-02-14T15:42:13.767Z,10.90
2019-02-14T15:44:40.306Z,10.90
2019-02-14T15:47:06.874Z,10.60
2019-02-14T15:49:33.432Z,10.20
2019-02-14T15:52:00.003Z,9.80
2019-02-14T15:54:26.577Z,9.80
2019-02-14T15:56:53.654Z,9.50
2019-02-14T15:59:21.509Z,9.40
2019-02-14T16:01:48.142Z,9.20
2019-02-14T16:04:14.814Z,8.90
2019-02-14T16:06:41.344Z,8.80
2019-02-14T16:09:07.930Z,8.70
2019-02-14T16:11:36.449Z,8.50
2019-02-14T16:14:02.991Z,8.50
2019-02-14T16:16:29.526Z,8.30
2019-02-14T16:18:56.091Z,8.20
2019-02-14T16:21:22.627Z,8.20
2019-02-14T16:23:50.960Z,8.00
2019-02-14T16:26:17.701Z,7.90
2019-02-14T16:28:44.258Z,7.80
2019-02-14T16:31:10.817Z,7.70
2019-02-14T16:33:37.496Z,7.50
2019-02-14T16:36:04.083Z,7.40
2019-02-14T16:38:30.738Z,7.30
2019-02-14T16:40:57.352Z,7.20
2019-02-14T16:43:23.898Z,7.00
2019-02-14T16:45:50.750Z,6.60
2019-02-14T16:48:17.314Z,6.30
2019-02-14T16:50:43.914Z,6.30
2019-02-14T16:53:10.454Z,6.60
2019-02-14T16:55:37.027Z,6.40
2019-02-14T16:58:03.548Z,6.40
2019-02-14T17:00:30.158Z,6.20
2019-02-14T17:02:56.714Z,6.20
2019-02-14T17:05:23.237Z,6.00
2019-02-14T17:07:49.816Z,6.10
2019-02-14T17:10:16.354Z,6.10
2019-02-14T17:12:42.938Z,6.00
2019-02-14T17:15:09.505Z,5.90
2019-02-14T17:17:36.076Z,5.80
2019-02-14T17:20:07.245Z,5.70
2019-02-14T17:22:33.989Z,5.60
2019-02-14T17:25:00.563Z,5.40
2019-02-14T17:27:27.148Z,5.10
2019-02-14T17:29:53.702Z,5.00
2019-02-14T17:32:20.280Z,5.10
2019-02-14T17:34:46.830Z,5.00
2019-02-14T17:37:13.400Z,5.00
2019-02-14T17:39:39.974Z,5.10
2019-02-14T17:42:06.515Z,5.10
2019-02-14T17:44:33.101Z,5.10
2019-02-14T17:46:59.644Z,5.00
2019-02-14T17:49:26.227Z,4.80
2019-02-14T17:51:52.876Z,4.80
2019-02-14T17:54:19.442Z,4.80
2019-02-14T17:56:46.001Z,4.70
2019-02-14T17:59:12.564Z,4.70
2019-02-14T18:01:39.165Z,4.60
2019-02-14T18:04:05.719Z,4.40
2019-02-14T18:06:32.386Z,4.40
2019-02-14T18:08:59.033Z,4.40
2019-02-14T18:11:25.592Z,4.30
2019-02-14T18:13:52.178Z,4.20
2019-02-14T18:16:18.769Z,4.10
2019-02-14T18:18:45.347Z,4.00
2019-02-14T18:21:11.925Z,3.80
2019-02-14T18:23:38.627Z,3.80
2019-02-14T18:26:05.287Z,3.70
2019-02-14T18:28:32.076Z,3.70
2019-02-14T18:30:58.633Z,3.70
2019-02-14T18:33:25.318Z,3.70
2019-02-14T18:35:51.926Z,3.70
2019-02-14T18:38:18.575Z,3.70
2019-02-14T18:40:45.116Z,3.70
2019-02-14T18:43:11.695Z,3.50
2019-02-14T18:45:38.281Z,3.50
2019-02-14T18:48:05.018Z,3.30
2019-02-14T18:50:32.706Z,3.40
2019-02-14T18:52:59.356Z,3.30
2019-02-14T18:55:25.939Z,3.20
2019-02-14T18:57:52.473Z,3.20
2019-02-14T19:00:19.642Z,3.10
2019-02-14T19:02:46.490Z,3.10
2019-02-14T19:05:13.246Z,3.20
2019-02-14T19:07:39.947Z,3.10
2019-02-14T19:10:15.882Z,3.20
2019-02-14T19:12:44.781Z,3.10
2019-02-14T19:15:12.636Z,3.10
2019-02-14T19:17:39.294Z,3.10
2019-02-14T19:20:08.393Z,3.20
2019-02-14T19:22:35.082Z,3.00
2019-02-14T19:25:01.774Z,2.90
2019-02-14T19:27:29.637Z,2.80
2019-02-14T19:29:56.303Z,2.80
2019-02-14T19:32:22.833Z,2.70
2019-02-14T19:34:49.402Z,2.70
2019-02-14T19:37:15.951Z,2.50
2019-02-14T19:39:42.578Z,2.40
2019-02-14T19:42:09.246Z,2.40
2019-02-14T19:44:35.818Z,2.40
2019-02-14T19:47:02.474Z,2.40
2019-02-14T19:49:29.118Z,2.40
2019-02-14T19:51:55.757Z,2.40
2019-02-14T19:54:22.439Z,2.30
2019-02-14T19:56:49.143Z,2.30
2019-02-14T19:59:15.669Z,2.30
2019-02-14T20:01:42.226Z,2.30
2019-02-14T20:04:08.844Z,2.20
2019-02-14T20:06:35.530Z,2.20
2019-02-14T20:09:02.352Z,2.10
2019-02-14T20:11:36.541Z,2.10
2019-02-14T20:13:59.186Z,2.10
2019-02-14T20:16:25.767Z,2.10
2019-02-14T20:18:52.370Z,2.10
2019-02-14T20:21:18.975Z,2.10
2019-02-14T20:23:45.574Z,2.10
2019-02-14T20:26:14.058Z,2.10
2019-02-14T20:28:40.644Z,2.00
2019-02-14T20:31:07.209Z,2.00
2019-02-14T20:33:33.783Z,1.90
2019-02-14T20:36:00.337Z,1.80
2019-02-14T21:09:38.489Z,26.70
2019-02-14T21:26:15.761Z,33.00
2019-02-14T21:28:42.343Z,30.30
2019-02-14T21:37:30.941Z,20.10
2019-02-14T21:39:59.498Z,9.40
2019-02-14T21:42:29.379Z,4.70
2019-02-14T21:44:54.896Z,3.10
2019-02-14T21:47:21.557Z,2.60
2019-02-14T21:49:48.218Z,2.50
2019-02-14T21:52:15.899Z,2.30
2019-02-14T21:54:42.438Z,1.80
2019-02-14T21:57:09.012Z,1.60
2019-02-14T21:59:35.671Z,1.40
2019-02-14T22:02:06.086Z,1.50
2019-02-14T22:04:31.976Z,1.40
2019-02-14T22:06:58.679Z,1.40
2019-02-14T22:09:25.306Z,1.20
2019-02-14T22:11:51.860Z,1.20
2019-02-14T22:14:18.464Z,1.00
2019-02-14T22:16:45.025Z,0.60
2019-02-14T22:19:11.571Z,0.60
2019-02-14T22:21:38.141Z,0.70
2019-02-14T22:24:04.706Z,0.80
2019-02-14T22:26:31.267Z,0.90
2019-02-14T22:28:57.827Z,1.10
2019-02-14T22:31:24.363Z,0.90
2019-02-14T22:33:51.013Z,0.70
2019-02-14T22:36:17.590Z,0.60
2019-02-14T22:38:44.146Z,0.60
2019-02-14T22:41:10.696Z,0.60
2019-02-14T22:43:37.283Z,0.60
2019-02-14T22:46:03.868Z,0.50
2019-02-14T22:48:30.432Z,0.50
2019-02-14T22:50:56.999Z,0.40
2019-02-14T22:53:23.548Z,0.50
2019-02-14T22:55:50.095Z,0.70
2019-02-14T22:58:16.657Z,0.70
2019-02-14T23:00:46.845Z,0.80
2019-02-14T23:03:14.217Z,0.70
2019-02-14T23:05:40.893Z,0.60
2019-02-14T23:08:07.430Z,0.70
2019-02-14T23:10:33.981Z,0.80
2019-02-14T23:13:00.630Z,0.70
2019-02-14T23:15:27.165Z,0.50
2019-02-14T23:17:54.844Z,0.60
2019-02-14T23:20:21.409Z,0.70
2019-02-14T23:22:47.975Z,0.50
2019-02-14T23:25:14.547Z,0.30
2019-02-14T23:27:41.104Z,0.20
2019-02-14T23:30:11.154Z,0.30
2019-02-14T23:32:37.712Z,0.40
2019-02-14T23:35:04.248Z,0.30
2019-02-14T23:37:30.823Z,0.20
2019-02-14T23:39:57.423Z,0.10
2019-02-14T23:42:24.088Z,0.00
2019-02-14T23:44:51.613Z,-0.30
2019-02-14T23:47:18.160Z,-0.30
2019-02-14T23:49:44.730Z,-0.20
2019-02-14T23:52:11.269Z,-0.10
2019-02-14T23:54:37.807Z,-0.10
2019-02-14T23:57:04.344Z,-0.10
2019-02-14T23:59:30.882Z,0.00
